createdAt,value
2018-09-06T00:00:17.280Z,12.90
2018-09-06T00:01:34.685Z,13.47
2018-09-06T00:02:51.907Z,13.98
2018-09-06T00:05:30.185Z,13.53
2018-09-06T00:06:47.085Z,13.37
2018-09-06T00:08:04.561Z,14.50
2018-09-06T00:09:21.838Z,18.37
2018-09-06T00:10:42.790Z,14.80
2018-09-06T00:12:00.046Z,14.05
2018-09-06T00:13:16.738Z,21.93
2018-09-06T00:14:35.285Z,14.50
2018-09-06T00:15:53.195Z,18.65
2018-09-06T00:17:10.008Z,16.73
2018-09-06T00:18:26.939Z,13.75
2018-09-06T00:19:43.799Z,13.35
2018-09-06T00:21:00.771Z,14.03
2018-09-06T00:22:19.438Z,15.30
2018-09-06T00:23:36.827Z,13.88
2018-09-06T00:24:53.862Z,13.10
2018-09-06T00:26:10.468Z,14.40
2018-09-06T00:27:27.407Z,12.73
2018-09-06T00:28:44.043Z,12.60
2018-09-06T00:30:01.025Z,12.70
2018-09-06T00:31:18.038Z,13.70
2018-09-06T00:32:37.317Z,14.10
2018-09-06T00:33:54.750Z,12.75
2018-09-06T00:35:11.838Z,13.88
2018-09-06T00:36:28.521Z,13.98
2018-09-06T00:37:46.201Z,13.48
2018-09-06T00:39:03.347Z,12.70
2018-09-06T00:40:24.759Z,14.27
2018-09-06T00:41:41.982Z,13.37
2018-09-06T00:42:59.077Z,13.20
2018-09-06T00:44:16.074Z,12.43
2018-09-06T00:45:33.999Z,14.00
2018-09-06T00:46:53.064Z,13.50
2018-09-06T00:48:12.330Z,14.98
2018-09-06T00:49:29.345Z,14.00
2018-09-06T00:50:46.190Z,13.88
2018-09-06T00:52:03.465Z,14.97
2018-09-06T00:53:24.401Z,13.83
2018-09-06T00:54:41.482Z,13.05
2018-09-06T00:56:01.146Z,11.60
2018-09-06T00:57:17.975Z,13.50
2018-09-06T00:58:34.941Z,12.73
2018-09-06T00:59:52.764Z,12.40
2018-09-06T01:02:16.512Z,12.83
2018-09-06T01:03:33.192Z,14.23
2018-09-06T01:04:50.840Z,12.87
2018-09-06T01:06:07.764Z,15.80
2018-09-06T01:07:29.270Z,11.73
2018-09-06T01:08:46.323Z,12.90
2018-09-06T01:10:03.037Z,13.37
2018-09-06T01:11:28.072Z,13.00
2018-09-06T01:12:46.561Z,13.10
2018-09-06T01:14:03.984Z,13.67
2018-09-06T01:15:21.959Z,11.83
2018-09-06T01:16:43.438Z,14.17
2018-09-06T01:18:00.842Z,13.60
2018-09-06T01:19:17.320Z,13.40
2018-09-06T01:20:34.070Z,12.82
2018-09-06T01:21:51.037Z,15.18
2018-09-06T01:23:07.736Z,13.15
2018-09-06T01:24:25.225Z,12.95
2018-09-06T01:25:48.931Z,12.18
2018-09-06T01:27:06.453Z,12.37
2018-09-06T01:28:23.821Z,13.60
2018-09-06T01:31:02.376Z,12.43
2018-09-06T01:32:19.145Z,13.13
2018-09-06T01:33:36.658Z,12.82
2018-09-06T01:34:53.540Z,15.03
2018-09-06T01:36:15.948Z,14.28
2018-09-06T01:37:33.348Z,19.37
2018-09-06T01:38:50.609Z,14.20
2018-09-06T01:40:07.301Z,13.95
2018-09-06T01:41:24.362Z,12.45
2018-09-06T01:42:42.371Z,15.13
2018-09-06T01:43:59.663Z,13.95
2018-09-06T01:45:23.145Z,13.78
2018-09-06T01:46:40.189Z,13.15
2018-09-06T01:47:57.508Z,12.07
2018-09-06T01:49:14.596Z,14.73
2018-09-06T01:50:32.525Z,14.13
2018-09-06T01:51:49.556Z,14.47
2018-09-06T01:53:07.015Z,14.13
2018-09-06T01:54:24.743Z,14.70
2018-09-06T01:55:42.005Z,14.65
2018-09-06T01:56:59.161Z,13.13
2018-09-06T01:58:17.296Z,14.35
2018-09-06T01:59:36.743Z,14.28
2018-09-06T02:00:54.205Z,14.85
2018-09-06T02:02:10.965Z,13.90
2018-09-06T02:03:27.792Z,13.08
2018-09-06T02:04:44.399Z,12.95
2018-09-06T02:06:01.273Z,11.15
2018-09-06T02:07:18.806Z,12.85
2018-09-06T02:08:35.804Z,13.75
2018-09-06T02:09:52.820Z,13.25
2018-09-06T02:11:09.309Z,14.00
2018-09-06T02:12:26.165Z,12.60
2018-09-06T02:13:43.135Z,13.03
2018-09-06T02:15:03.661Z,17.65
2018-09-06T02:16:20.477Z,11.57
2018-09-06T02:17:37.299Z,16.52
2018-09-06T02:18:53.929Z,12.50
2018-09-06T02:20:11.833Z,15.47
2018-09-06T02:21:29.382Z,13.10
2018-09-06T02:22:46.770Z,13.40
2018-09-06T02:24:03.813Z,12.75
2018-09-06T02:25:21.301Z,14.20
2018-09-06T02:26:39.043Z,13.05
2018-09-06T02:27:55.893Z,12.68
2018-09-06T02:29:12.673Z,13.93
2018-09-06T02:30:30.109Z,11.50
2018-09-06T02:31:47.718Z,16.10
2018-09-06T02:33:05.363Z,12.80
2018-09-06T02:35:46.374Z,13.22
2018-09-06T02:37:08.863Z,11.60
2018-09-06T02:38:25.809Z,18.23
2018-09-06T02:39:43.606Z,12.78
2018-09-06T02:41:00.584Z,12.78
2018-09-06T02:42:17.497Z,13.43
2018-09-06T02:43:34.356Z,11.90
2018-09-06T02:44:51.334Z,13.18
2018-09-06T02:46:14.693Z,12.85
2018-09-06T02:47:31.785Z,13.43
2018-09-06T02:48:48.668Z,12.30
2018-09-06T02:50:10.881Z,12.78
2018-09-06T02:51:28.455Z,11.75
2018-09-06T02:52:45.613Z,13.10
2018-09-06T02:54:02.297Z,12.53
2018-09-06T02:55:19.196Z,11.27
2018-09-06T02:56:35.742Z,12.40
2018-09-06T02:57:52.649Z,12.25
2018-09-06T02:59:09.539Z,14.10
2018-09-06T03:00:28.286Z,12.05
2018-09-06T03:01:45.281Z,14.20
2018-09-06T03:03:05.610Z,13.28
2018-09-06T03:04:22.744Z,12.73
2018-09-06T03:05:41.145Z,12.90
2018-09-06T03:06:58.071Z,11.28
2018-09-06T03:08:15.552Z,12.75
2018-09-06T03:09:33.533Z,12.75
2018-09-06T03:11:08.630Z,12.10
2018-09-06T03:12:26.583Z,14.20
2018-09-06T03:13:44.251Z,12.65
2018-09-06T03:15:07.146Z,11.90
2018-09-06T03:16:24.459Z,11.80
2018-09-06T03:17:41.479Z,12.65
2018-09-06T03:18:58.190Z,13.10
2018-09-06T03:20:15.436Z,11.40
2018-09-06T03:21:33.076Z,12.05
2018-09-06T03:22:50.616Z,12.00
2018-09-06T03:24:07.171Z,13.20
2018-09-06T03:25:25.955Z,12.73
2018-09-06T03:26:44.459Z,11.30
2018-09-06T03:28:03.254Z,13.38
2018-09-06T03:29:19.738Z,12.05
2018-09-06T03:30:36.904Z,12.47
2018-09-06T03:31:53.942Z,13.18
2018-09-06T03:33:15.169Z,12.05
2018-09-06T03:34:34.261Z,11.08
2018-09-06T03:35:51.524Z,12.80
2018-09-06T03:37:08.181Z,14.38
2018-09-06T03:38:24.846Z,12.80
2018-09-06T03:39:41.723Z,12.30
2018-09-06T03:40:59.745Z,11.57
2018-09-06T03:42:21.535Z,13.90
2018-09-06T03:43:38.832Z,14.73
2018-09-06T03:44:57.622Z,13.55
2018-09-06T03:46:14.555Z,11.05
2018-09-06T03:47:33.552Z,13.85
2018-09-06T03:48:50.837Z,13.05
2018-09-06T03:50:09.213Z,13.25
2018-09-06T03:51:26.363Z,11.83
2018-09-06T03:52:43.122Z,13.10
2018-09-06T03:54:03.632Z,12.60
2018-09-06T03:55:21.142Z,10.85
2018-09-06T03:56:38.761Z,12.35
2018-09-06T03:57:56.014Z,12.78
2018-09-06T03:59:14.737Z,14.60
2018-09-06T04:00:31.241Z,15.25
2018-09-06T04:01:48.365Z,10.58
2018-09-06T04:03:07.106Z,12.82
2018-09-06T04:04:24.028Z,11.70
2018-09-06T04:05:41.001Z,13.05
2018-09-06T04:06:59.472Z,11.43
2018-09-06T04:08:16.942Z,14.03
2018-09-06T04:09:33.631Z,11.68
2018-09-06T04:10:51.284Z,12.15
2018-09-06T04:12:08.458Z,12.47
2018-09-06T04:13:25.127Z,12.70
2018-09-06T04:14:41.948Z,10.93
2018-09-06T04:15:58.896Z,13.38
2018-09-06T04:17:15.679Z,13.25
2018-09-06T04:18:32.779Z,11.90
2018-09-06T04:19:49.807Z,12.10
2018-09-06T04:21:07.662Z,11.83
2018-09-06T04:22:25.129Z,12.90
2018-09-06T04:23:42.199Z,11.28
2018-09-06T04:25:00.438Z,11.93
2018-09-06T04:26:17.661Z,10.58
2018-09-06T04:27:34.577Z,11.70
2018-09-06T04:28:51.263Z,10.93
2018-09-06T04:30:08.074Z,11.53
2018-09-06T04:31:36.544Z,10.98
2018-09-06T04:32:54.150Z,13.62
2018-09-06T04:34:11.850Z,12.13
2018-09-06T04:35:28.837Z,11.63
2018-09-06T04:36:47.621Z,11.50
2018-09-06T04:38:04.706Z,11.60
2018-09-06T04:39:21.696Z,11.95
2018-09-06T04:40:38.641Z,11.68
2018-09-06T04:42:50.194Z,11.78
2018-09-06T04:44:07.389Z,11.40
2018-09-06T04:45:24.848Z,12.53
2018-09-06T04:46:41.505Z,10.72
2018-09-06T04:47:58.583Z,12.43
2018-09-06T04:49:15.413Z,12.30
2018-09-06T04:50:32.093Z,12.60
2018-09-06T04:51:49.668Z,11.78
2018-09-06T04:53:06.456Z,12.53
2018-09-06T04:54:23.674Z,10.82
2018-09-06T04:55:41.560Z,10.90
2018-09-06T04:56:59.052Z,12.18
2018-09-06T04:58:17.175Z,10.95
2018-09-06T04:59:34.581Z,11.50
2018-09-06T05:00:51.493Z,11.85
2018-09-06T05:02:08.694Z,10.70
2018-09-06T05:03:26.090Z,11.65
2018-09-06T05:04:42.898Z,10.60
2018-09-06T05:05:59.627Z,11.25
2018-09-06T05:07:17.106Z,9.48
2018-09-06T05:08:34.205Z,11.53
2018-09-06T05:09:59.201Z,10.63
2018-09-06T05:11:15.874Z,11.50
2018-09-06T05:12:34.132Z,11.43
2018-09-06T05:13:51.925Z,10.78
2018-09-06T05:15:09.158Z,11.28
2018-09-06T05:16:30.170Z,13.00
2018-09-06T05:17:46.771Z,11.40
2018-09-06T05:19:04.497Z,12.07
2018-09-06T05:20:21.396Z,10.50
2018-09-06T05:21:39.942Z,10.68
2018-09-06T05:22:56.871Z,10.28
2018-09-06T05:24:13.642Z,11.48
2018-09-06T05:25:30.588Z,11.20
2018-09-06T05:26:49.835Z,9.48
2018-09-06T05:28:07.393Z,9.88
2018-09-06T05:29:25.170Z,11.43
2018-09-06T05:30:41.970Z,10.25
2018-09-06T05:32:04.281Z,11.40
2018-09-06T05:33:21.852Z,11.08
2018-09-06T05:34:39.044Z,10.63
2018-09-06T05:35:55.601Z,13.95
2018-09-06T05:37:12.557Z,10.08
2018-09-06T05:38:29.402Z,11.10
2018-09-06T05:39:46.157Z,11.55
2018-09-06T05:41:03.209Z,12.58
2018-09-06T05:42:20.181Z,11.33
2018-09-06T05:43:36.774Z,11.38
2018-09-06T05:44:57.392Z,11.18
2018-09-06T05:46:16.602Z,10.75
2018-09-06T05:47:34.308Z,11.75
2018-09-06T05:48:51.725Z,11.90
2018-09-06T05:50:08.852Z,10.80
2018-09-06T05:51:26.321Z,10.18
2018-09-06T05:52:43.373Z,10.53
2018-09-06T05:54:01.025Z,10.18
2018-09-06T05:55:17.611Z,11.08
2018-09-06T05:56:34.417Z,10.82
2018-09-06T05:57:51.547Z,10.85
2018-09-06T05:59:10.093Z,10.75
2018-09-06T06:00:32.429Z,10.63
2018-09-06T06:01:49.898Z,11.73
2018-09-06T06:03:08.456Z,10.65
2018-09-06T06:04:27.072Z,11.00
2018-09-06T06:05:44.278Z,9.70
2018-09-06T06:07:01.069Z,9.78
2018-09-06T06:08:28.837Z,10.30
2018-09-06T06:09:46.574Z,10.88
2018-09-06T06:11:03.234Z,10.45
2018-09-06T06:12:20.097Z,10.60
2018-09-06T06:13:36.802Z,11.95
2018-09-06T06:14:53.739Z,11.40
2018-09-06T06:16:12.200Z,11.15
2018-09-06T06:17:29.080Z,9.05
2018-09-06T06:18:46.159Z,10.78
2018-09-06T06:20:03.074Z,10.23
2018-09-06T06:21:24.753Z,9.38
2018-09-06T06:22:42.236Z,9.30
2018-09-06T06:23:59.797Z,10.18
2018-09-06T06:25:16.783Z,11.68
2018-09-06T06:26:33.625Z,9.00
2018-09-06T06:27:54.113Z,17.35
2018-09-06T06:29:11.230Z,9.90
2018-09-06T06:30:28.016Z,9.57
2018-09-06T06:31:49.550Z,10.58
2018-09-06T06:33:06.724Z,10.90
2018-09-06T06:34:23.254Z,10.38
2018-09-06T06:35:40.423Z,10.65
2018-09-06T06:36:57.875Z,9.38
2018-09-06T06:38:15.737Z,10.75
2018-09-06T06:39:33.411Z,10.83
2018-09-06T06:40:50.127Z,9.83
2018-09-06T06:42:07.128Z,10.78
2018-09-06T06:43:23.885Z,10.75
2018-09-06T06:44:41.536Z,10.45
2018-09-06T06:45:58.447Z,10.20
2018-09-06T06:47:15.133Z,9.20
2018-09-06T06:48:31.759Z,12.15
2018-09-06T06:49:48.605Z,9.90
2018-09-06T06:51:05.440Z,9.75
2018-09-06T06:52:23.009Z,10.45
2018-09-06T06:53:39.750Z,10.15
2018-09-06T06:54:57.305Z,10.40
2018-09-06T06:56:15.256Z,11.35
2018-09-06T06:57:32.297Z,10.45
2018-09-06T06:58:49.208Z,9.83
2018-09-06T07:00:13.457Z,11.12
2018-09-06T07:01:31.065Z,11.00
2018-09-06T07:02:48.469Z,10.68
2018-09-06T07:04:05.863Z,9.73
2018-09-06T07:05:22.923Z,9.25
2018-09-06T07:06:41.246Z,10.10
2018-09-06T07:07:58.230Z,11.18
2018-09-06T07:09:15.085Z,10.83
2018-09-06T07:10:32.089Z,9.80
2018-09-06T07:11:49.906Z,12.15
2018-09-06T07:13:08.074Z,11.38
2018-09-06T07:14:25.167Z,11.13
2018-09-06T07:15:41.950Z,12.10
2018-09-06T07:16:58.558Z,9.63
2018-09-06T07:18:15.559Z,10.95
2018-09-06T07:19:32.355Z,9.60
2018-09-06T07:20:49.146Z,9.20
2018-09-06T07:22:06.190Z,11.93
2018-09-06T07:23:23.813Z,10.48
2018-09-06T07:24:41.082Z,11.25
2018-09-06T07:25:58.502Z,17.20
2018-09-06T07:27:15.242Z,9.80
2018-09-06T07:30:00.450Z,11.75
2018-09-06T07:31:17.565Z,10.15
2018-09-06T07:32:34.876Z,12.60
2018-09-06T07:33:52.612Z,10.72
2018-09-06T07:35:10.289Z,10.78
2018-09-06T07:36:31.416Z,11.15
2018-09-06T07:37:48.792Z,10.38
2018-09-06T07:39:08.050Z,9.98
2018-09-06T07:40:25.853Z,10.53
2018-09-06T07:41:43.553Z,9.68
2018-09-06T07:43:00.152Z,9.65
2018-09-06T07:44:17.194Z,10.32
2018-09-06T07:45:34.173Z,10.55
2018-09-06T07:46:51.397Z,10.75
2018-09-06T07:48:08.040Z,9.90
2018-09-06T07:49:28.794Z,11.15
2018-09-06T07:50:45.508Z,10.65
2018-09-06T07:52:02.282Z,9.47
2018-09-06T07:53:23.082Z,10.25
2018-09-06T07:54:40.701Z,9.93
2018-09-06T07:55:58.177Z,10.13
2018-09-06T07:57:14.704Z,10.15
2018-09-06T07:58:31.528Z,11.25
2018-09-06T07:59:48.905Z,14.98
2018-09-06T08:01:06.618Z,11.80
2018-09-06T08:02:24.069Z,11.08
2018-09-06T08:03:41.608Z,13.40
2018-09-06T08:04:58.659Z,12.90
2018-09-06T08:06:15.599Z,13.48
2018-09-06T08:07:34.195Z,17.03
2018-09-06T08:08:51.383Z,12.25
2018-09-06T08:10:09.625Z,14.13
2018-09-06T08:11:26.446Z,13.27
2018-09-06T08:12:43.533Z,11.00
2018-09-06T08:14:00.394Z,16.00
2018-09-06T08:15:17.124Z,13.18
2018-09-06T08:16:34.473Z,13.70
2018-09-06T08:17:52.019Z,11.80
2018-09-06T08:19:11.342Z,15.20
2018-09-06T08:20:28.567Z,12.78
2018-09-06T08:21:46.265Z,15.85
2018-09-06T08:23:03.317Z,12.45
2018-09-06T08:24:19.887Z,13.50
2018-09-06T08:25:40.824Z,13.13
2018-09-06T08:26:57.695Z,14.05
2018-09-06T08:28:14.636Z,10.82
2018-09-06T08:29:31.785Z,14.28
2018-09-06T08:30:49.466Z,17.07
2018-09-06T08:32:06.213Z,14.05
2018-09-06T08:33:22.817Z,13.70
2018-09-06T08:34:39.430Z,13.22
2018-09-06T08:35:56.326Z,12.30
2018-09-06T08:37:13.190Z,13.93
2018-09-06T08:38:29.938Z,13.15
2018-09-06T08:39:46.614Z,18.55
2018-09-06T08:41:04.525Z,16.12
2018-09-06T08:42:22.219Z,12.50
2018-09-06T08:43:39.101Z,12.23
2018-09-06T08:44:56.801Z,14.20
2018-09-06T08:46:13.748Z,11.55
2018-09-06T08:47:31.354Z,12.20
2018-09-06T08:48:48.291Z,15.17
2018-09-06T08:50:17.149Z,11.20
2018-09-06T08:51:34.875Z,11.95
2018-09-06T08:52:52.502Z,11.88
2018-09-06T08:54:12.340Z,11.40
2018-09-06T08:55:29.817Z,12.90
2018-09-06T08:56:46.598Z,11.73
2018-09-06T08:58:03.610Z,10.70
2018-09-06T08:59:20.841Z,12.93
2018-09-06T09:00:41.401Z,11.78
2018-09-06T09:01:58.968Z,12.80
2018-09-06T09:03:16.034Z,12.68
2018-09-06T09:04:32.999Z,13.10
2018-09-06T09:05:50.140Z,10.72
2018-09-06T09:07:08.833Z,11.25
2018-09-06T09:08:25.603Z,12.13
2018-09-06T09:09:43.435Z,11.97
2018-09-06T09:11:00.113Z,11.73
2018-09-06T09:12:17.192Z,13.25
2018-09-06T09:13:36.318Z,14.60
2018-09-06T09:14:53.252Z,11.90
2018-09-06T09:16:10.146Z,12.23
2018-09-06T09:17:26.526Z,10.93
2018-09-06T09:18:43.440Z,10.10
2018-09-06T09:20:00.193Z,12.30
2018-09-06T09:21:17.053Z,11.95
2018-09-06T09:22:33.962Z,10.65
2018-09-06T09:23:56.354Z,12.28
2018-09-06T09:25:13.656Z,12.88
2018-09-06T09:26:31.308Z,9.95
2018-09-06T09:27:48.172Z,14.60
2018-09-06T09:29:05.840Z,10.63
2018-09-06T09:30:22.592Z,9.95
2018-09-06T09:31:40.465Z,10.90
2018-09-06T09:32:57.501Z,10.73
2018-09-06T09:34:14.218Z,13.85
2018-09-06T09:35:31.095Z,11.00
2018-09-06T09:36:47.927Z,11.00
2018-09-06T09:38:05.571Z,8.93
2018-09-06T09:39:22.229Z,9.33
2018-09-06T09:40:41.073Z,8.90
2018-09-06T09:42:02.384Z,10.87
2018-09-06T09:43:19.908Z,11.57
2018-09-06T09:44:36.582Z,12.80
2018-09-06T09:45:53.252Z,9.67
2018-09-06T09:48:27.032Z,10.70
2018-09-06T09:49:43.950Z,10.23
2018-09-06T09:51:00.685Z,9.40
2018-09-06T09:53:42.199Z,11.70
2018-09-06T09:55:04.993Z,11.43
2018-09-06T09:56:21.952Z,12.80
2018-09-06T09:59:01.658Z,10.90
2018-09-06T10:00:25.430Z,12.37
2018-09-06T10:01:42.621Z,10.13
2018-09-06T10:03:05.425Z,10.33
2018-09-06T10:04:27.921Z,10.67
2018-09-06T10:06:53.525Z,15.43
2018-09-06T10:08:16.456Z,11.93
2018-09-06T10:09:39.073Z,12.53
2018-09-06T10:10:55.845Z,11.40
2018-09-06T10:12:12.775Z,11.50
2018-09-06T10:13:29.850Z,10.87
2018-09-06T10:14:47.236Z,11.13
2018-09-06T10:16:04.314Z,10.17
2018-09-06T10:17:21.015Z,12.13
2018-09-06T10:18:38.704Z,10.23
2018-09-06T10:19:56.480Z,9.47
2018-09-06T10:21:13.326Z,11.27
2018-09-06T10:22:32.276Z,10.80
2018-09-06T10:23:50.950Z,10.33
2018-09-06T10:25:08.422Z,12.03
2018-09-06T10:26:25.245Z,14.33
2018-09-06T10:27:42.073Z,11.37
2018-09-06T10:28:58.868Z,13.23
2018-09-06T10:30:15.811Z,14.67
2018-09-06T10:31:33.211Z,9.40
2018-09-06T10:32:50.673Z,12.20
2018-09-06T10:34:07.502Z,10.63
2018-09-06T10:35:24.646Z,9.57
2018-09-06T10:36:41.347Z,11.93
2018-09-06T10:37:58.188Z,13.00
2018-09-06T10:39:15.040Z,11.20
2018-09-06T10:40:31.822Z,12.90
2018-09-06T10:41:48.637Z,11.13
2018-09-06T10:43:05.739Z,12.13
2018-09-06T10:44:22.360Z,10.57
2018-09-06T10:45:39.275Z,11.40
2018-09-06T10:46:56.244Z,11.60
2018-09-06T10:48:13.925Z,10.93
2018-09-06T10:49:30.769Z,16.10
2018-09-06T10:50:47.360Z,10.03
2018-09-06T10:53:26.389Z,11.07
2018-09-06T10:54:43.964Z,10.87
2018-09-06T10:56:00.933Z,11.03
2018-09-06T10:57:17.769Z,11.97
2018-09-06T10:58:35.228Z,11.67
2018-09-06T10:59:52.563Z,11.60
2018-09-06T11:01:14.626Z,11.47
2018-09-06T11:02:32.143Z,8.63
2018-09-06T11:03:49.494Z,9.67
2018-09-06T11:05:06.696Z,9.70
2018-09-06T11:06:23.900Z,10.93
2018-09-06T11:07:41.278Z,9.03
2018-09-06T11:08:58.370Z,9.37
2018-09-06T11:10:15.013Z,9.40
2018-09-06T11:11:31.964Z,9.57
2018-09-06T11:12:48.945Z,8.80
2018-09-06T11:14:10.690Z,9.93
2018-09-06T11:15:27.601Z,12.90
2018-09-06T11:16:44.196Z,10.00
2018-09-06T11:18:01.301Z,9.13
2018-09-06T11:19:18.038Z,9.77
2018-09-06T11:20:34.546Z,9.27
2018-09-06T11:21:51.617Z,7.70
2018-09-06T11:23:08.370Z,9.23
2018-09-06T11:24:25.341Z,8.17
2018-09-06T11:25:43.059Z,10.90
2018-09-06T11:27:00.129Z,7.67
2018-09-06T11:28:17.821Z,8.37
2018-09-06T11:29:34.593Z,9.07
2018-09-06T11:30:54.158Z,8.77
2018-09-06T11:32:11.173Z,9.70
2018-09-06T11:33:28.605Z,7.90
2018-09-06T11:34:46.066Z,8.30
2018-09-06T11:36:03.938Z,7.63
2018-09-06T11:37:20.905Z,7.97
2018-09-06T11:38:38.766Z,9.43
2018-09-06T11:39:56.199Z,8.13
2018-09-06T11:41:12.920Z,9.63
2018-09-06T11:42:29.800Z,7.60
2018-09-06T11:43:47.326Z,8.07
2018-09-06T11:45:05.152Z,8.50
2018-09-06T11:46:22.139Z,10.40
2018-09-06T11:47:39.266Z,8.37
2018-09-06T11:48:56.850Z,10.17
2018-09-06T11:50:14.237Z,9.47
2018-09-06T11:51:32.046Z,8.07
2018-09-06T11:52:49.621Z,10.00
2018-09-06T11:54:07.214Z,9.90
2018-09-06T11:55:24.278Z,9.87
2018-09-06T11:56:40.792Z,9.23
2018-09-06T11:58:01.096Z,9.80
2018-09-06T11:59:18.612Z,8.53
2018-09-06T12:00:37.676Z,9.50
2018-09-06T12:01:55.696Z,9.83
2018-09-06T12:03:12.819Z,8.70
2018-09-06T12:04:29.503Z,8.57
2018-09-06T12:05:46.172Z,8.73
2018-09-06T12:07:03.086Z,11.47
2018-09-06T12:08:20.258Z,8.60
2018-09-06T12:09:36.931Z,11.27
2018-09-06T12:10:53.664Z,11.77
2018-09-06T12:12:10.600Z,11.60
2018-09-06T12:13:28.268Z,9.10
2018-09-06T12:14:45.989Z,13.70
2018-09-06T12:16:03.470Z,14.10
2018-09-06T12:17:20.605Z,10.80
2018-09-06T12:18:38.194Z,9.43
2018-09-06T12:19:54.885Z,8.80
2018-09-06T12:21:11.741Z,10.90
2018-09-06T12:22:28.456Z,10.27
2018-09-06T12:23:45.822Z,10.33
2018-09-06T12:25:03.668Z,9.63
2018-09-06T12:26:21.054Z,9.33
2018-09-06T12:27:39.592Z,8.83
2018-09-06T12:28:56.449Z,9.10
2018-09-06T12:30:13.610Z,8.53
2018-09-06T12:31:31.962Z,9.13
2018-09-06T12:32:49.791Z,9.40
2018-09-06T12:34:07.434Z,9.30
2018-09-06T12:35:24.671Z,10.30
2018-09-06T12:36:41.996Z,9.07
2018-09-06T12:37:59.389Z,10.10
2018-09-06T12:39:16.377Z,9.20
2018-09-06T12:40:33.340Z,10.03
2018-09-06T12:41:50.038Z,10.20
2018-09-06T12:43:07.244Z,8.20
2018-09-06T12:44:25.579Z,9.80
2018-09-06T12:45:42.585Z,10.33
2018-09-06T12:47:00.068Z,8.30
2018-09-06T12:48:23.969Z,9.10
2018-09-06T12:49:41.286Z,9.30
2018-09-06T12:50:58.745Z,9.23
2018-09-06T12:52:15.369Z,9.43
2018-09-06T12:53:33.527Z,10.10
2018-09-06T12:54:51.223Z,9.07
2018-09-06T12:56:09.125Z,8.00
2018-09-06T12:57:26.900Z,9.40
2018-09-06T12:58:44.740Z,8.47
2018-09-06T13:00:01.746Z,10.43
2018-09-06T13:01:19.292Z,8.50
2018-09-06T13:02:36.060Z,8.73
2018-09-06T13:03:56.603Z,7.83
2018-09-06T13:05:14.198Z,9.40
2018-09-06T13:06:31.967Z,8.37
2018-09-06T13:07:49.290Z,8.50
2018-09-06T13:09:07.441Z,9.70
2018-09-06T13:10:24.653Z,11.03
2018-09-06T13:11:41.685Z,8.50
2018-09-06T13:12:58.305Z,8.47
2018-09-06T13:14:15.062Z,9.07
2018-09-06T13:15:32.093Z,10.30
2018-09-06T13:16:49.682Z,10.00
2018-09-06T13:18:07.261Z,8.40
2018-09-06T13:19:26.888Z,9.73
2018-09-06T13:20:47.008Z,8.50
2018-09-06T13:22:05.742Z,8.37
2018-09-06T13:23:22.298Z,8.57
2018-09-06T13:24:47.030Z,9.90
2018-09-06T13:26:04.885Z,9.43
2018-09-06T13:27:21.786Z,8.50
2018-09-06T13:28:39.135Z,9.33
2018-09-06T13:29:56.533Z,9.20
2018-09-06T13:31:13.426Z,8.60
2018-09-06T13:32:30.291Z,10.13
2018-09-06T13:33:47.440Z,9.70
2018-09-06T13:35:05.317Z,8.97
2018-09-06T13:36:23.407Z,8.47
2018-09-06T13:37:40.131Z,8.90
2018-09-06T13:38:58.803Z,12.40
2018-09-06T13:40:15.690Z,10.43
2018-09-06T13:41:33.465Z,8.90
2018-09-06T13:42:55.138Z,10.27
2018-09-06T13:44:12.024Z,9.63
2018-09-06T13:45:29.027Z,9.87
2018-09-06T13:46:46.622Z,10.50
2018-09-06T13:48:03.389Z,10.00
2018-09-06T13:49:26.141Z,12.00
2018-09-06T13:50:43.073Z,11.83
2018-09-06T13:51:59.932Z,9.67
2018-09-06T13:53:17.310Z,9.90
2018-09-06T13:54:36.599Z,11.17
2018-09-06T13:55:53.464Z,10.63
2018-09-06T13:57:12.312Z,11.70
2018-09-06T13:58:29.272Z,8.80
2018-09-06T13:59:47.500Z,9.73
2018-09-06T14:01:04.655Z,11.00
2018-09-06T14:02:22.906Z,10.17
2018-09-06T14:03:41.112Z,9.57
2018-09-06T14:04:59.172Z,11.93
2018-09-06T14:06:16.556Z,9.73
2018-09-06T14:07:33.943Z,11.50
2018-09-06T14:08:50.657Z,9.60
2018-09-06T14:10:07.613Z,10.10
2018-09-06T14:11:25.447Z,10.97
2018-09-06T14:12:43.749Z,10.63
2018-09-06T14:14:00.779Z,11.80
2018-09-06T14:15:17.514Z,12.00
2018-09-06T14:16:34.403Z,13.63
2018-09-06T14:17:55.694Z,15.10
2018-09-06T14:19:12.749Z,18.47
2018-09-06T14:20:30.517Z,29.80
2018-09-06T14:21:47.487Z,43.93
2018-09-06T14:23:04.904Z,71.63
2018-09-06T14:24:21.559Z,64.50
2018-09-06T14:25:38.221Z,85.70
2018-09-06T14:26:55.389Z,85.00
2018-09-06T14:28:13.325Z,76.63
2018-09-06T14:29:30.858Z,75.30
2018-09-06T14:30:48.578Z,82.37
2018-09-06T14:32:06.244Z,84.57
2018-09-06T14:33:23.197Z,82.17
2018-09-06T14:34:39.873Z,82.00
2018-09-06T14:35:57.503Z,88.30
2018-09-06T14:37:15.325Z,81.07
2018-09-06T14:38:32.915Z,78.03
2018-09-06T14:39:49.713Z,77.33
2018-09-06T14:41:06.745Z,69.63
2018-09-06T14:42:23.353Z,59.47
2018-09-06T14:43:40.595Z,57.07
2018-09-06T14:44:58.159Z,51.20
2018-09-06T14:46:15.043Z,49.00
2018-09-06T14:47:31.880Z,49.57
2018-09-06T14:48:48.806Z,38.00
2018-09-06T14:50:06.011Z,30.57
2018-09-06T14:51:23.441Z,24.97
2018-09-06T14:52:40.365Z,19.73
2018-09-06T14:53:58.316Z,19.20
2018-09-06T14:55:15.588Z,16.03
2018-09-06T14:56:32.521Z,17.83
2018-09-06T14:57:49.883Z,17.07
2018-09-06T14:59:07.372Z,17.20
2018-09-06T15:00:27.903Z,15.40
2018-09-06T15:01:46.297Z,16.40
2018-09-06T15:03:03.774Z,12.97
2018-09-06T15:04:21.501Z,13.20
2018-09-06T15:05:40.635Z,16.07
2018-09-06T15:06:58.076Z,11.30
2018-09-06T15:08:14.960Z,12.40
2018-09-06T15:09:39.341Z,14.27
2018-09-06T15:10:56.457Z,11.63
2018-09-06T15:12:13.885Z,10.80
2018-09-06T15:13:31.495Z,12.10
2018-09-06T15:14:49.149Z,11.47
2018-09-06T15:16:06.665Z,9.60
2018-09-06T15:17:23.904Z,10.17
2018-09-06T15:18:40.667Z,8.43
2018-09-06T15:19:58.113Z,9.53
2018-09-06T15:21:14.881Z,9.17
2018-09-06T15:22:32.371Z,11.57
2018-09-06T15:23:49.411Z,10.57
2018-09-06T15:25:06.890Z,12.37
2018-09-06T15:26:25.082Z,11.60
2018-09-06T15:27:42.634Z,10.83
2018-09-06T15:28:59.646Z,10.30
2018-09-06T15:30:16.313Z,11.60
2018-09-06T15:31:33.546Z,8.90
2018-09-06T15:32:55.716Z,8.70
2018-09-06T15:34:12.821Z,9.60
2018-09-06T15:35:31.967Z,9.10
2018-09-06T15:36:49.165Z,9.13
2018-09-06T15:38:06.426Z,9.10
2018-09-06T15:39:23.727Z,8.10
2018-09-06T15:40:41.125Z,8.57
2018-09-06T15:41:58.557Z,8.30
2018-09-06T15:43:16.512Z,9.23
2018-09-06T15:44:33.274Z,7.90
2018-09-06T15:45:50.135Z,9.97
2018-09-06T15:47:06.971Z,8.10
2018-09-06T15:48:23.912Z,7.57
2018-09-06T15:49:42.829Z,6.97
2018-09-06T15:51:00.369Z,9.40
2018-09-06T15:52:17.097Z,7.43
2018-09-06T15:53:34.110Z,6.93
2018-09-06T15:54:51.637Z,8.07
2018-09-06T15:56:08.765Z,9.00
2018-09-06T15:57:26.759Z,8.70
2018-09-06T15:58:44.178Z,6.77
2018-09-06T16:00:00.789Z,7.10
2018-09-06T16:01:17.977Z,8.43
2018-09-06T16:02:35.496Z,7.77
2018-09-06T16:03:55.926Z,7.23
2018-09-06T16:05:13.184Z,6.93
2018-09-06T16:06:32.644Z,6.53
2018-09-06T16:07:49.502Z,6.93
2018-09-06T16:09:07.774Z,6.60
2018-09-06T16:10:25.108Z,7.63
2018-09-06T16:11:42.123Z,9.80
2018-09-06T16:12:58.879Z,9.77
2018-09-06T16:14:15.657Z,9.77
2018-09-06T16:15:33.255Z,10.70
2018-09-06T16:16:50.940Z,10.80
2018-09-06T16:18:09.457Z,8.30
2018-09-06T16:19:27.063Z,9.00
2018-09-06T16:20:44.636Z,8.23
2018-09-06T16:22:02.199Z,10.40
2018-09-06T16:23:19.677Z,9.67
2018-09-06T16:24:37.047Z,8.90
2018-09-06T16:25:53.856Z,9.57
2018-09-06T16:27:10.640Z,11.50
2018-09-06T16:28:27.472Z,11.27
2018-09-06T16:29:45.241Z,10.70
2018-09-06T16:31:02.062Z,12.33
2018-09-06T16:32:18.990Z,10.37
2018-09-06T16:33:36.401Z,9.33
2018-09-06T16:34:53.322Z,13.57
2018-09-06T16:36:09.948Z,9.40
2018-09-06T16:37:27.204Z,9.50
2018-09-06T16:38:44.660Z,11.03
2018-09-06T16:40:01.245Z,11.70
2018-09-06T16:41:18.336Z,9.37
2018-09-06T16:42:35.899Z,9.70
2018-09-06T16:43:52.531Z,9.10
2018-09-06T16:45:09.556Z,8.70
2018-09-06T16:46:26.270Z,11.57
2018-09-06T16:47:43.234Z,10.33
2018-09-06T16:49:00.780Z,9.83
2018-09-06T16:50:17.802Z,10.43
2018-09-06T16:51:34.771Z,9.40
2018-09-06T16:52:52.808Z,10.50
2018-09-06T16:54:10.448Z,14.60
2018-09-06T16:55:28.379Z,9.93
2018-09-06T16:56:46.302Z,10.60
2018-09-06T16:58:03.572Z,12.70
2018-09-06T16:59:20.385Z,9.30
2018-09-06T17:00:37.204Z,11.33
2018-09-06T17:01:54.513Z,10.30
2018-09-06T17:03:11.848Z,9.33